sensor_id;sensor_type;location;lat;lon;timestamp;P1;durP1;ratioP1;P2;durP2;ratioP2
8574;SDS011;4325;42.520;27.448;2023-05-07T00:00:42;4.40;;;3.73;;
8574;SDS011;4325;42.520;27.448;2023-05-07T00:03:09;8.80;;;3.10;;
8574;SDS011;4325;42.520;27.448;2023-05-07T00:05:38;6.03;;;3.10;;
8574;SDS011;4325;42.520;27.448;2023-05-07T00:08:06;7.33;;;3.10;;
8574;SDS011;4325;42.520;27.448;2023-05-07T00:10:33;9.67;;;3.00;;
8574;SDS011;4325;42.520;27.448;2023-05-07T00:13:00;4.97;;;2.60;;
8574;SDS011;4325;42.520;27.448;2023-05-07T00:15:27;4.80;;;2.97;;
8574;SDS011;4325;42.520;27.448;2023-05-07T00:17:55;3.27;;;2.40;;
8574;SDS011;4325;42.520;27.448;2023-05-07T00:20:23;2.87;;;2.53;;
8574;SDS011;4325;42.520;27.448;2023-05-07T00:22:50;5.03;;;2.80;;
8574;SDS011;4325;42.520;27.448;2023-05-07T00:25:17;3.90;;;2.60;;
8574;SDS011;4325;42.520;27.448;2023-05-07T00:27:44;9.93;;;3.10;;
8574;SDS011;4325;42.520;27.448;2023-05-07T00:30:12;4.30;;;2.90;;
8574;SDS011;4325;42.520;27.448;2023-05-07T00:32:39;3.40;;;3.07;;
8574;SDS011;4325;42.520;27.448;2023-05-07T00:35:08;6.17;;;2.83;;
8574;SDS011;4325;42.520;27.448;2023-05-07T00:37:35;6.33;;;3.20;;
8574;SDS011;4325;42.520;27.448;2023-05-07T00:40:02;4.50;;;3.00;;
8574;SDS011;4325;42.520;27.448;2023-05-07T00:42:32;5.60;;;3.37;;
8574;SDS011;4325;42.520;27.448;2023-05-07T00:44:59;8.90;;;3.57;;
8574;SDS011;4325;42.520;27.448;2023-05-07T00:47:25;8.57;;;3.63;;
8574;SDS011;4325;42.520;27.448;2023-05-07T00:49:52;3.67;;;3.23;;
8574;SDS011;4325;42.520;27.448;2023-05-07T00:52:21;5.30;;;3.47;;
8574;SDS011;4325;42.520;27.448;2023-05-07T00:54:51;7.50;;;3.60;;
8574;SDS011;4325;42.520;27.448;2023-05-07T00:57:19;5.37;;;3.93;;
8574;SDS011;4325;42.520;27.448;2023-05-07T00:59:47;7.70;;;4.10;;
8574;SDS011;4325;42.520;27.448;2023-05-07T01:02:15;8.13;;;4.23;;
8574;SDS011;4325;42.520;27.448;2023-05-07T01:04:42;8.20;;;4.10;;
8574;SDS011;4325;42.520;27.448;2023-05-07T01:07:09;6.83;;;3.87;;
8574;SDS011;4325;42.520;27.448;2023-05-07T01:09:38;5.13;;;3.90;;
8574;SDS011;4325;42.520;27.448;2023-05-07T01:12:05;7.13;;;3.83;;
8574;SDS011;4325;42.520;27.448;2023-05-07T01:14:33;4.20;;;3.73;;
8574;SDS011;4325;42.520;27.448;2023-05-07T01:17:00;10.57;;;4.63;;
8574;SDS011;4325;42.520;27.448;2023-05-07T01:19:28;8.20;;;4.20;;
8574;SDS011;4325;42.520;27.448;2023-05-07T01:21:59;8.70;;;4.17;;
8574;SDS011;4325;42.520;27.448;2023-05-07T01:24:30;10.53;;;4.37;;
8574;SDS011;4325;42.520;27.448;2023-05-07T01:26:58;6.93;;;4.70;;
8574;SDS011;4325;42.520;27.448;2023-05-07T01:29:26;10.80;;;5.37;;
8574;SDS011;4325;42.520;27.448;2023-05-07T01:31:53;12.00;;;5.97;;
8574;SDS011;4325;42.520;27.448;2023-05-07T01:34:22;8.40;;;6.20;;
8574;SDS011;4325;42.520;27.448;2023-05-07T01:36:52;8.80;;;4.73;;
8574;SDS011;4325;42.520;27.448;2023-05-07T01:39:23;8.83;;;5.57;;
8574;SDS011;4325;42.520;27.448;2023-05-07T01:41:53;11.00;;;5.07;;
8574;SDS011;4325;42.520;27.448;2023-05-07T01:44:22;9.57;;;5.33;;
8574;SDS011;4325;42.520;27.448;2023-05-07T01:46:49;11.40;;;4.30;;
8574;SDS011;4325;42.520;27.448;2023-05-07T01:49:16;8.10;;;3.67;;
8574;SDS011;4325;42.520;27.448;2023-05-07T01:51:43;5.73;;;3.63;;
8574;SDS011;4325;42.520;27.448;2023-05-07T01:54:10;8.90;;;4.00;;
8574;SDS011;4325;42.520;27.448;2023-05-07T01:56:37;9.07;;;3.70;;
8574;SDS011;4325;42.520;27.448;2023-05-07T01:59:05;4.90;;;3.93;;
8574;SDS011;4325;42.520;27.448;2023-05-07T02:01:32;10.07;;;5.47;;
8574;SDS011;4325;42.520;27.448;2023-05-07T02:03:59;8.73;;;5.83;;
8574;SDS011;4325;42.520;27.448;2023-05-07T02:06:26;8.97;;;3.27;;
8574;SDS011;4325;42.520;27.448;2023-05-07T02:08:52;9.37;;;3.83;;
8574;SDS011;4325;42.520;27.448;2023-05-07T02:11:19;8.37;;;3.70;;
8574;SDS011;4325;42.520;27.448;2023-05-07T02:13:46;4.10;;;3.37;;
8574;SDS011;4325;42.520;27.448;2023-05-07T02:16:14;5.83;;;3.20;;
8574;SDS011;4325;42.520;27.448;2023-05-07T02:18:41;9.83;;;5.33;;
8574;SDS011;4325;42.520;27.448;2023-05-07T02:21:08;5.80;;;3.80;;
8574;SDS011;4325;42.520;27.448;2023-05-07T02:23:35;6.77;;;3.93;;
8574;SDS011;4325;42.520;27.448;2023-05-07T02:26:03;4.73;;;3.30;;
8574;SDS011;4325;42.520;27.448;2023-05-07T02:28:30;7.53;;;3.30;;
8574;SDS011;4325;42.520;27.448;2023-05-07T02:30:57;6.40;;;3.70;;
8574;SDS011;4325;42.520;27.448;2023-05-07T02:33:27;6.17;;;3.93;;
8574;SDS011;4325;42.520;27.448;2023-05-07T02:35:53;5.97;;;3.80;;
8574;SDS011;4325;42.520;27.448;2023-05-07T02:38:21;10.27;;;3.80;;
8574;SDS011;4325;42.520;27.448;2023-05-07T02:40:48;11.03;;;3.80;;
8574;SDS011;4325;42.520;27.448;2023-05-07T02:43:15;6.37;;;3.60;;
8574;SDS011;4325;42.520;27.448;2023-05-07T02:45:42;3.90;;;3.40;;
8574;SDS011;4325;42.520;27.448;2023-05-07T02:48:09;5.17;;;3.80;;
8574;SDS011;4325;42.520;27.448;2023-05-07T02:50:37;7.27;;;3.40;;
8574;SDS011;4325;42.520;27.448;2023-05-07T02:53:04;8.70;;;3.93;;
8574;SDS011;4325;42.520;27.448;2023-05-07T02:55:31;9.07;;;4.20;;
8574;SDS011;4325;42.520;27.448;2023-05-07T02:57:58;8.53;;;3.80;;
8574;SDS011;4325;42.520;27.448;2023-05-07T03:00:25;7.10;;;3.53;;
8574;SDS011;4325;42.520;27.448;2023-05-07T03:02:52;7.87;;;3.63;;
8574;SDS011;4325;42.520;27.448;2023-05-07T03:05:19;6.37;;;3.50;;
8574;SDS011;4325;42.520;27.448;2023-05-07T03:07:47;7.43;;;2.93;;
8574;SDS011;4325;42.520;27.448;2023-05-07T03:10:14;9.80;;;3.17;;
8574;SDS011;4325;42.520;27.448;2023-05-07T03:12:41;4.73;;;2.90;;
8574;SDS011;4325;42.520;27.448;2023-05-07T03:15:08;5.53;;;2.80;;
8574;SDS011;4325;42.520;27.448;2023-05-07T03:17:36;6.53;;;3.00;;
8574;SDS011;4325;42.520;27.448;2023-05-07T03:20:03;11.20;;;3.10;;
8574;SDS011;4325;42.520;27.448;2023-05-07T03:22:32;10.30;;;3.50;;
8574;SDS011;4325;42.520;27.448;2023-05-07T03:25:00;3.63;;;2.87;;
8574;SDS011;4325;42.520;27.448;2023-05-07T03:27:27;8.27;;;3.20;;
8574;SDS011;4325;42.520;27.448;2023-05-07T03:29:54;9.27;;;3.53;;
8574;SDS011;4325;42.520;27.448;2023-05-07T03:32:20;6.33;;;2.93;;
8574;SDS011;4325;42.520;27.448;2023-05-07T03:34:47;5.43;;;3.00;;
8574;SDS011;4325;42.520;27.448;2023-05-07T03:37:14;6.67;;;3.27;;
8574;SDS011;4325;42.520;27.448;2023-05-07T03:39:41;8.87;;;3.27;;
8574;SDS011;4325;42.520;27.448;2023-05-07T03:42:09;4.43;;;2.63;;
8574;SDS011;4325;42.520;27.448;2023-05-07T03:44:36;3.50;;;3.00;;
8574;SDS011;4325;42.520;27.448;2023-05-07T03:47:03;7.10;;;3.03;;
8574;SDS011;4325;42.520;27.448;2023-05-07T03:49:30;6.30;;;3.47;;
8574;SDS011;4325;42.520;27.448;2023-05-07T03:51:57;7.63;;;2.93;;
8574;SDS011;4325;42.520;27.448;2023-05-07T03:54:24;8.83;;;3.30;;
8574;SDS011;4325;42.520;27.448;2023-05-07T03:56:51;7.70;;;3.57;;
8574;SDS011;4325;42.520;27.448;2023-05-07T03:59:19;5.43;;;3.33;;
8574;SDS011;4325;42.520;27.448;2023-05-07T04:01:46;7.07;;;3.03;;
8574;SDS011;4325;42.520;27.448;2023-05-07T04:04:13;9.23;;;3.17;;
8574;SDS011;4325;42.520;27.448;2023-05-07T04:06:40;5.20;;;3.57;;
8574;SDS011;4325;42.520;27.448;2023-05-07T04:09:07;10.93;;;3.67;;
8574;SDS011;4325;42.520;27.448;2023-05-07T04:11:35;7.47;;;4.47;;
8574;SDS011;4325;42.520;27.448;2023-05-07T04:14:02;6.67;;;3.00;;
8574;SDS011;4325;42.520;27.448;2023-05-07T04:16:30;9.10;;;3.10;;
8574;SDS011;4325;42.520;27.448;2023-05-07T04:18:57;5.47;;;3.07;;
8574;SDS011;4325;42.520;27.448;2023-05-07T04:21:24;10.10;;;3.43;;
8574;SDS011;4325;42.520;27.448;2023-05-07T04:23:51;4.40;;;2.87;;
8574;SDS011;4325;42.520;27.448;2023-05-07T04:26:18;7.87;;;3.90;;
8574;SDS011;4325;42.520;27.448;2023-05-07T04:28:46;6.80;;;3.10;;
8574;SDS011;4325;42.520;27.448;2023-05-07T04:31:13;5.97;;;3.40;;
8574;SDS011;4325;42.520;27.448;2023-05-07T04:33:41;6.43;;;3.27;;
8574;SDS011;4325;42.520;27.448;2023-05-07T04:36:08;5.53;;;2.67;;
8574;SDS011;4325;42.520;27.448;2023-05-07T04:38:36;7.97;;;2.80;;
8574;SDS011;4325;42.520;27.448;2023-05-07T04:41:04;6.20;;;2.83;;
8574;SDS011;4325;42.520;27.448;2023-05-07T04:43:32;5.17;;;2.97;;
8574;SDS011;4325;42.520;27.448;2023-05-07T04:45:59;5.60;;;2.63;;
8574;SDS011;4325;42.520;27.448;2023-05-07T04:48:26;4.13;;;2.70;;
8574;SDS011;4325;42.520;27.448;2023-05-07T04:50:55;4.53;;;2.97;;
8574;SDS011;4325;42.520;27.448;2023-05-07T04:53:22;4.30;;;2.50;;
8574;SDS011;4325;42.520;27.448;2023-05-07T04:55:54;3.80;;;2.90;;
8574;SDS011;4325;42.520;27.448;2023-05-07T04:58:21;7.40;;;2.90;;
8574;SDS011;4325;42.520;27.448;2023-05-07T05:00:48;5.70;;;2.73;;
8574;SDS011;4325;42.520;27.448;2023-05-07T05:03:15;6.43;;;2.93;;
8574;SDS011;4325;42.520;27.448;2023-05-07T05:05:42;7.63;;;2.70;;
8574;SDS011;4325;42.520;27.448;2023-05-07T05:08:10;7.50;;;3.17;;
8574;SDS011;4325;42.520;27.448;2023-05-07T05:10:37;5.33;;;3.00;;
8574;SDS011;4325;42.520;27.448;2023-05-07T05:13:04;6.20;;;2.90;;
8574;SDS011;4325;42.520;27.448;2023-05-07T05:15:31;5.40;;;3.00;;
8574;SDS011;4325;42.520;27.448;2023-05-07T05:17:58;6.77;;;3.10;;
8574;SDS011;4325;42.520;27.448;2023-05-07T05:20:25;5.23;;;2.70;;
8574;SDS011;4325;42.520;27.448;2023-05-07T05:22:52;5.30;;;2.63;;
8574;SDS011;4325;42.520;27.448;2023-05-07T05:25:20;7.10;;;3.10;;
8574;SDS011;4325;42.520;27.448;2023-05-07T05:27:47;7.53;;;2.87;;
8574;SDS011;4325;42.520;27.448;2023-05-07T05:30:14;8.43;;;3.40;;
8574;SDS011;4325;42.520;27.448;2023-05-07T05:32:40;5.10;;;2.70;;
8574;SDS011;4325;42.520;27.448;2023-05-07T05:35:08;6.00;;;2.80;;
8574;SDS011;4325;42.520;27.448;2023-05-07T05:37:35;9.43;;;3.23;;
8574;SDS011;4325;42.520;27.448;2023-05-07T05:40:01;8.50;;;3.00;;
8574;SDS011;4325;42.520;27.448;2023-05-07T05:42:30;10.23;;;2.90;;
8574;SDS011;4325;42.520;27.448;2023-05-07T05:44:57;6.20;;;2.40;;
8574;SDS011;4325;42.520;27.448;2023-05-07T05:47:24;5.17;;;2.53;;
8574;SDS011;4325;42.520;27.448;2023-05-07T05:49:51;5.50;;;2.80;;
8574;SDS011;4325;42.520;27.448;2023-05-07T05:52:18;6.73;;;2.87;;
8574;SDS011;4325;42.520;27.448;2023-05-07T05:54:45;6.10;;;3.47;;
8574;SDS011;4325;42.520;27.448;2023-05-07T05:57:11;6.17;;;3.77;;
8574;SDS011;4325;42.520;27.448;2023-05-07T05:59:40;3.57;;;2.50;;
8574;SDS011;4325;42.520;27.448;2023-05-07T06:02:07;5.10;;;2.30;;
8574;SDS011;4325;42.520;27.448;2023-05-07T06:04:34;5.97;;;2.57;;
8574;SDS011;4325;42.520;27.448;2023-05-07T06:07:00;6.07;;;2.60;;
8574;SDS011;4325;42.520;27.448;2023-05-07T06:09:27;4.77;;;2.93;;
8574;SDS011;4325;42.520;27.448;2023-05-07T06:11:54;7.47;;;2.97;;
8574;SDS011;4325;42.520;27.448;2023-05-07T06:14:21;7.93;;;2.40;;
8574;SDS011;4325;42.520;27.448;2023-05-07T06:16:49;9.07;;;3.53;;
8574;SDS011;4325;42.520;27.448;2023-05-07T06:19:16;4.83;;;2.70;;
8574;SDS011;4325;42.520;27.448;2023-05-07T06:21:48;5.63;;;2.83;;
8574;SDS011;4325;42.520;27.448;2023-05-07T06:24:15;6.33;;;2.60;;
8574;SDS011;4325;42.520;27.448;2023-05-07T06:26:41;7.97;;;2.40;;
8574;SDS011;4325;42.520;27.448;2023-05-07T06:29:08;4.20;;;2.60;;
8574;SDS011;4325;42.520;27.448;2023-05-07T06:31:35;6.37;;;3.10;;
8574;SDS011;4325;42.520;27.448;2023-05-07T06:34:03;4.77;;;2.80;;
8574;SDS011;4325;42.520;27.448;2023-05-07T06:36:30;4.37;;;2.60;;
8574;SDS011;4325;42.520;27.448;2023-05-07T06:38:57;5.97;;;2.60;;
8574;SDS011;4325;42.520;27.448;2023-05-07T06:41:24;5.50;;;2.80;;
8574;SDS011;4325;42.520;27.448;2023-05-07T06:43:51;12.27;;;3.20;;
8574;SDS011;4325;42.520;27.448;2023-05-07T06:46:18;4.90;;;2.53;;
8574;SDS011;4325;42.520;27.448;2023-05-07T06:48:45;8.50;;;3.90;;
8574;SDS011;4325;42.520;27.448;2023-05-07T06:51:14;8.13;;;3.50;;
8574;SDS011;4325;42.520;27.448;2023-05-07T06:53:41;6.17;;;3.80;;
8574;SDS011;4325;42.520;27.448;2023-05-07T06:56:07;6.57;;;3.53;;
8574;SDS011;4325;42.520;27.448;2023-05-07T06:58:34;5.63;;;2.83;;
8574;SDS011;4325;42.520;27.448;2023-05-07T07:01:01;11.80;;;3.37;;
8574;SDS011;4325;42.520;27.448;2023-05-07T07:03:28;6.77;;;2.67;;
8574;SDS011;4325;42.520;27.448;2023-05-07T07:05:55;4.40;;;2.40;;
8574;SDS011;4325;42.520;27.448;2023-05-07T07:08:23;10.57;;;2.67;;
8574;SDS011;4325;42.520;27.448;2023-05-07T07:10:50;4.40;;;2.40;;
8574;SDS011;4325;42.520;27.448;2023-05-07T07:13:17;7.30;;;3.17;;
8574;SDS011;4325;42.520;27.448;2023-05-07T07:15:44;3.23;;;2.37;;
8574;SDS011;4325;42.520;27.448;2023-05-07T07:18:11;14.53;;;3.43;;
8574;SDS011;4325;42.520;27.448;2023-05-07T07:20:38;8.47;;;2.67;;
8574;SDS011;4325;42.520;27.448;2023-05-07T07:23:05;8.67;;;4.13;;
8574;SDS011;4325;42.520;27.448;2023-05-07T07:25:33;7.23;;;2.80;;
8574;SDS011;4325;42.520;27.448;2023-05-07T07:28:00;4.27;;;3.07;;
8574;SDS011;4325;42.520;27.448;2023-05-07T07:30:27;4.27;;;2.57;;
8574;SDS011;4325;42.520;27.448;2023-05-07T07:32:54;4.83;;;2.90;;
8574;SDS011;4325;42.520;27.448;2023-05-07T07:35:25;4.73;;;2.93;;
8574;SDS011;4325;42.520;27.448;2023-05-07T07:37:52;7.07;;;3.43;;
8574;SDS011;4325;42.520;27.448;2023-05-07T07:40:19;11.00;;;3.27;;
8574;SDS011;4325;42.520;27.448;2023-05-07T07:42:47;7.33;;;2.93;;
8574;SDS011;4325;42.520;27.448;2023-05-07T07:45:14;6.40;;;3.57;;
8574;SDS011;4325;42.520;27.448;2023-05-07T07:47:41;6.73;;;3.30;;
8574;SDS011;4325;42.520;27.448;2023-05-07T07:50:08;7.97;;;4.30;;
8574;SDS011;4325;42.520;27.448;2023-05-07T07:52:36;6.03;;;3.43;;
8574;SDS011;4325;42.520;27.448;2023-05-07T07:55:03;10.13;;;4.30;;
8574;SDS011;4325;42.520;27.448;2023-05-07T07:57:31;6.37;;;3.77;;
8574;SDS011;4325;42.520;27.448;2023-05-07T07:59:59;7.80;;;3.93;;
8574;SDS011;4325;42.520;27.448;2023-05-07T08:02:27;6.03;;;3.40;;
8574;SDS011;4325;42.520;27.448;2023-05-07T08:04:54;5.60;;;3.80;;
8574;SDS011;4325;42.520;27.448;2023-05-07T08:07:21;9.47;;;4.17;;
8574;SDS011;4325;42.520;27.448;2023-05-07T08:09:48;9.20;;;3.97;;
8574;SDS011;4325;42.520;27.448;2023-05-07T08:12:15;4.20;;;2.90;;
8574;SDS011;4325;42.520;27.448;2023-05-07T08:14:42;11.30;;;3.83;;
8574;SDS011;4325;42.520;27.448;2023-05-07T08:17:10;5.57;;;2.87;;
8574;SDS011;4325;42.520;27.448;2023-05-07T08:19:37;5.90;;;3.00;;
8574;SDS011;4325;42.520;27.448;2023-05-07T08:22:04;4.43;;;3.67;;
8574;SDS011;4325;42.520;27.448;2023-05-07T08:24:31;10.73;;;4.20;;
8574;SDS011;4325;42.520;27.448;2023-05-07T08:26:57;3.77;;;2.60;;
8574;SDS011;4325;42.520;27.448;2023-05-07T08:29:24;6.30;;;3.20;;
8574;SDS011;4325;42.520;27.448;2023-05-07T08:31:51;8.60;;;3.17;;
8574;SDS011;4325;42.520;27.448;2023-05-07T08:34:21;7.70;;;2.60;;
8574;SDS011;4325;42.520;27.448;2023-05-07T08:36:48;9.33;;;3.33;;
8574;SDS011;4325;42.520;27.448;2023-05-07T08:39:15;6.67;;;3.50;;
8574;SDS011;4325;42.520;27.448;2023-05-07T08:41:44;7.27;;;3.37;;
8574;SDS011;4325;42.520;27.448;2023-05-07T08:44:12;7.93;;;3.40;;
8574;SDS011;4325;42.520;27.448;2023-05-07T08:46:40;6.67;;;2.60;;
8574;SDS011;4325;42.520;27.448;2023-05-07T08:49:08;8.07;;;3.20;;
8574;SDS011;4325;42.520;27.448;2023-05-07T08:51:37;7.30;;;2.83;;
8574;SDS011;4325;42.520;27.448;2023-05-07T08:54:04;3.77;;;2.60;;
8574;SDS011;4325;42.520;27.448;2023-05-07T08:56:32;5.63;;;3.00;;
8574;SDS011;4325;42.520;27.448;2023-05-07T08:58:59;7.17;;;2.63;;
8574;SDS011;4325;42.520;27.448;2023-05-07T09:01:26;10.13;;;3.00;;
8574;SDS011;4325;42.520;27.448;2023-05-07T09:03:53;5.53;;;3.47;;
8574;SDS011;4325;42.520;27.448;2023-05-07T09:06:20;11.70;;;3.50;;
8574;SDS011;4325;42.520;27.448;2023-05-07T09:08:52;3.80;;;2.60;;
8574;SDS011;4325;42.520;27.448;2023-05-07T09:11:20;6.37;;;2.97;;
8574;SDS011;4325;42.520;27.448;2023-05-07T09:13:48;9.02;;;3.00;;
8574;SDS011;4325;42.520;27.448;2023-05-07T09:16:16;7.88;;;3.25;;
8574;SDS011;4325;42.520;27.448;2023-05-07T09:18:42;5.40;;;3.00;;
8574;SDS011;4325;42.520;27.448;2023-05-07T09:21:10;9.25;;;3.00;;
8574;SDS011;4325;42.520;27.448;2023-05-07T09:23:38;4.10;;;3.03;;
8574;SDS011;4325;42.520;27.448;2023-05-07T09:26:07;9.55;;;3.33;;
8574;SDS011;4325;42.520;27.448;2023-05-07T09:28:38;8.10;;;3.13;;
8574;SDS011;4325;42.520;27.448;2023-05-07T09:31:06;8.50;;;3.10;;
8574;SDS011;4325;42.520;27.448;2023-05-07T09:33:33;6.03;;;3.10;;
8574;SDS011;4325;42.520;27.448;2023-05-07T09:36:02;7.55;;;2.75;;
8574;SDS011;4325;42.520;27.448;2023-05-07T09:38:30;4.80;;;2.50;;
8574;SDS011;4325;42.520;27.448;2023-05-07T09:41:04;13.35;;;2.85;;
8574;SDS011;4325;42.520;27.448;2023-05-07T09:43:34;6.95;;;2.67;;
8574;SDS011;4325;42.520;27.448;2023-05-07T09:46:06;7.18;;;2.75;;
8574;SDS011;4325;42.520;27.448;2023-05-07T09:48:38;6.80;;;2.80;;
8574;SDS011;4325;42.520;27.448;2023-05-07T09:51:08;6.45;;;3.10;;
8574;SDS011;4325;42.520;27.448;2023-05-07T09:53:44;5.50;;;2.67;;
8574;SDS011;4325;42.520;27.448;2023-05-07T09:56:13;7.72;;;2.40;;
8574;SDS011;4325;42.520;27.448;2023-05-07T09:58:42;5.78;;;3.00;;
8574;SDS011;4325;42.520;27.448;2023-05-07T10:01:10;3.42;;;2.45;;
8574;SDS011;4325;42.520;27.448;2023-05-07T10:03:39;9.23;;;2.67;;
8574;SDS011;4325;42.520;27.448;2023-05-07T10:06:08;3.90;;;2.78;;
8574;SDS011;4325;42.520;27.448;2023-05-07T10:08:36;5.30;;;2.67;;
8574;SDS011;4325;42.520;27.448;2023-05-07T10:11:03;7.68;;;2.63;;
8574;SDS011;4325;42.520;27.448;2023-05-07T10:13:32;6.23;;;2.77;;
8574;SDS011;4325;42.520;27.448;2023-05-07T10:16:02;6.75;;;3.40;;
8574;SDS011;4325;42.520;27.448;2023-05-07T10:18:29;10.32;;;3.05;;
8574;SDS011;4325;42.520;27.448;2023-05-07T10:20:59;5.37;;;3.07;;
8574;SDS011;4325;42.520;27.448;2023-05-07T10:23:31;7.63;;;3.00;;
8574;SDS011;4325;42.520;27.448;2023-05-07T10:25:59;4.15;;;2.70;;
8574;SDS011;4325;42.520;27.448;2023-05-07T10:28:29;9.63;;;3.05;;
8574;SDS011;4325;42.520;27.448;2023-05-07T10:34:01;5.10;;;3.00;;
8574;SDS011;4325;42.520;27.448;2023-05-07T10:36:34;8.07;;;2.92;;
8574;SDS011;4325;42.520;27.448;2023-05-07T10:39:02;5.68;;;2.72;;
8574;SDS011;4325;42.520;27.448;2023-05-07T10:41:29;5.05;;;2.78;;
8574;SDS011;4325;42.520;27.448;2023-05-07T10:43:56;7.47;;;3.50;;
8574;SDS011;4325;42.520;27.448;2023-05-07T10:46:27;10.38;;;2.80;;
8574;SDS011;4325;42.520;27.448;2023-05-07T10:49:07;8.38;;;2.90;;
8574;SDS011;4325;42.520;27.448;2023-05-07T10:51:36;4.40;;;2.90;;
8574;SDS011;4325;42.520;27.448;2023-05-07T10:54:19;4.03;;;2.97;;
8574;SDS011;4325;42.520;27.448;2023-05-07T10:56:47;4.22;;;2.67;;
8574;SDS011;4325;42.520;27.448;2023-05-07T10:59:34;3.97;;;2.45;;
8574;SDS011;4325;42.520;27.448;2023-05-07T11:02:08;6.50;;;2.85;;
8574;SDS011;4325;42.520;27.448;2023-05-07T11:04:36;11.13;;;3.28;;
8574;SDS011;4325;42.520;27.448;2023-05-07T11:09:55;8.50;;;3.13;;
8574;SDS011;4325;42.520;27.448;2023-05-07T11:15:32;10.45;;;3.17;;
8574;SDS011;4325;42.520;27.448;2023-05-07T11:18:05;5.63;;;2.90;;
8574;SDS011;4325;42.520;27.448;2023-05-07T11:20:45;5.05;;;3.13;;
8574;SDS011;4325;42.520;27.448;2023-05-07T11:26:24;6.20;;;3.08;;
8574;SDS011;4325;42.520;27.448;2023-05-07T11:28:51;4.82;;;2.80;;
8574;SDS011;4325;42.520;27.448;2023-05-07T11:31:23;8.00;;;3.50;;
8574;SDS011;4325;42.520;27.448;2023-05-07T11:33:54;8.10;;;2.90;;
8574;SDS011;4325;42.520;27.448;2023-05-07T11:36:22;7.43;;;2.93;;
8574;SDS011;4325;42.520;27.448;2023-05-07T11:38:50;8.60;;;2.80;;
8574;SDS011;4325;42.520;27.448;2023-05-07T11:41:17;5.97;;;2.63;;
8574;SDS011;4325;42.520;27.448;2023-05-07T11:43:55;7.43;;;2.65;;
8574;SDS011;4325;42.520;27.448;2023-05-07T11:46:23;4.65;;;2.70;;
8574;SDS011;4325;42.520;27.448;2023-05-07T11:48:50;9.45;;;3.03;;
8574;SDS011;4325;42.520;27.448;2023-05-07T11:51:22;6.80;;;2.70;;
8574;SDS011;4325;42.520;27.448;2023-05-07T11:53:51;5.13;;;2.58;;
8574;SDS011;4325;42.520;27.448;2023-05-07T11:56:18;9.20;;;2.93;;
8574;SDS011;4325;42.520;27.448;2023-05-07T11:58:46;5.60;;;2.90;;
8574;SDS011;4325;42.520;27.448;2023-05-07T12:01:15;6.57;;;3.27;;
8574;SDS011;4325;42.520;27.448;2023-05-07T12:03:44;3.63;;;2.90;;
8574;SDS011;4325;42.520;27.448;2023-05-07T12:06:12;6.77;;;3.07;;
8574;SDS011;4325;42.520;27.448;2023-05-07T12:08:42;9.47;;;2.93;;
8574;SDS011;4325;42.520;27.448;2023-05-07T12:11:15;5.73;;;3.10;;
8574;SDS011;4325;42.520;27.448;2023-05-07T12:13:48;9.50;;;3.67;;
8574;SDS011;4325;42.520;27.448;2023-05-07T12:16:14;14.00;;;4.00;;
8574;SDS011;4325;42.520;27.448;2023-05-07T12:18:42;6.70;;;3.37;;
8574;SDS011;4325;42.520;27.448;2023-05-07T12:21:10;8.83;;;2.70;;
8574;SDS011;4325;42.520;27.448;2023-05-07T12:23:37;11.37;;;3.40;;
8574;SDS011;4325;42.520;27.448;2023-05-07T12:26:06;6.30;;;2.90;;
8574;SDS011;4325;42.520;27.448;2023-05-07T12:28:38;7.60;;;2.80;;
8574;SDS011;4325;42.520;27.448;2023-05-07T12:31:05;6.50;;;3.07;;
8574;SDS011;4325;42.520;27.448;2023-05-07T12:33:33;6.90;;;3.10;;
8574;SDS011;4325;42.520;27.448;2023-05-07T12:36:03;15.87;;;3.17;;
8574;SDS011;4325;42.520;27.448;2023-05-07T12:38:35;4.40;;;3.07;;
8574;SDS011;4325;42.520;27.448;2023-05-07T12:41:03;11.70;;;3.60;;
8574;SDS011;4325;42.520;27.448;2023-05-07T12:43:32;9.80;;;3.00;;
8574;SDS011;4325;42.520;27.448;2023-05-07T12:46:00;10.67;;;3.73;;
8574;SDS011;4325;42.520;27.448;2023-05-07T12:48:30;7.53;;;3.67;;
8574;SDS011;4325;42.520;27.448;2023-05-07T12:51:00;6.87;;;3.47;;
8574;SDS011;4325;42.520;27.448;2023-05-07T12:53:28;5.80;;;3.10;;
8574;SDS011;4325;42.520;27.448;2023-05-07T12:55:57;8.37;;;3.00;;
8574;SDS011;4325;42.520;27.448;2023-05-07T12:58:25;5.20;;;2.77;;
8574;SDS011;4325;42.520;27.448;2023-05-07T13:00:55;7.73;;;3.10;;
8574;SDS011;4325;42.520;27.448;2023-05-07T13:03:27;9.97;;;3.33;;
8574;SDS011;4325;42.520;27.448;2023-05-07T13:05:55;9.30;;;3.30;;
8574;SDS011;4325;42.520;27.448;2023-05-07T13:08:25;10.33;;;3.13;;
8574;SDS011;4325;42.520;27.448;2023-05-07T13:10:57;8.93;;;3.67;;
8574;SDS011;4325;42.520;27.448;2023-05-07T13:13:25;13.73;;;3.00;;
8574;SDS011;4325;42.520;27.448;2023-05-07T13:15:52;5.33;;;2.90;;
8574;SDS011;4325;42.520;27.448;2023-05-07T13:18:20;11.37;;;3.03;;
8574;SDS011;4325;42.520;27.448;2023-05-07T13:20:47;8.03;;;3.17;;
8574;SDS011;4325;42.520;27.448;2023-05-07T13:23:14;7.53;;;2.60;;
8574;SDS011;4325;42.520;27.448;2023-05-07T13:25:40;8.53;;;2.93;;
8574;SDS011;4325;42.520;27.448;2023-05-07T13:28:07;9.80;;;3.83;;
8574;SDS011;4325;42.520;27.448;2023-05-07T13:30:34;6.83;;;2.87;;
8574;SDS011;4325;42.520;27.448;2023-05-07T13:33:01;8.67;;;3.07;;
8574;SDS011;4325;42.520;27.448;2023-05-07T13:35:29;8.50;;;3.03;;
8574;SDS011;4325;42.520;27.448;2023-05-07T13:37:56;5.63;;;2.83;;
8574;SDS011;4325;42.520;27.448;2023-05-07T13:40:23;7.30;;;3.03;;
8574;SDS011;4325;42.520;27.448;2023-05-07T13:42:51;5.67;;;3.00;;
8574;SDS011;4325;42.520;27.448;2023-05-07T13:45:18;7.50;;;2.77;;
8574;SDS011;4325;42.520;27.448;2023-05-07T13:47:45;5.47;;;2.80;;
8574;SDS011;4325;42.520;27.448;2023-05-07T13:50:14;7.00;;;2.90;;
8574;SDS011;4325;42.520;27.448;2023-05-07T13:52:43;4.77;;;3.47;;
8574;SDS011;4325;42.520;27.448;2023-05-07T13:55:15;8.27;;;3.13;;
8574;SDS011;4325;42.520;27.448;2023-05-07T13:57:42;8.93;;;3.00;;
8574;SDS011;4325;42.520;27.448;2023-05-07T14:00:10;8.30;;;3.20;;
8574;SDS011;4325;42.520;27.448;2023-05-07T14:02:38;8.00;;;3.23;;
8574;SDS011;4325;42.520;27.448;2023-05-07T14:05:05;6.57;;;3.03;;
8574;SDS011;4325;42.520;27.448;2023-05-07T14:07:34;8.23;;;2.97;;
8574;SDS011;4325;42.520;27.448;2023-05-07T14:10:02;7.07;;;2.50;;
8574;SDS011;4325;42.520;27.448;2023-05-07T14:12:29;9.97;;;3.47;;
8574;SDS011;4325;42.520;27.448;2023-05-07T14:14:56;7.27;;;3.53;;
8574;SDS011;4325;42.520;27.448;2023-05-07T14:17:23;11.07;;;3.67;;
8574;SDS011;4325;42.520;27.448;2023-05-07T14:19:52;6.50;;;3.67;;
8574;SDS011;4325;42.520;27.448;2023-05-07T14:22:20;10.53;;;3.97;;
8574;SDS011;4325;42.520;27.448;2023-05-07T14:24:47;6.60;;;3.30;;
8574;SDS011;4325;42.520;27.448;2023-05-07T14:27:16;7.13;;;3.13;;
8574;SDS011;4325;42.520;27.448;2023-05-07T14:29:43;6.03;;;3.23;;
8574;SDS011;4325;42.520;27.448;2023-05-07T14:32:10;7.83;;;3.40;;
8574;SDS011;4325;42.520;27.448;2023-05-07T14:34:37;4.97;;;3.17;;
8574;SDS011;4325;42.520;27.448;2023-05-07T14:37:04;6.20;;;3.33;;
8574;SDS011;4325;42.520;27.448;2023-05-07T14:39:31;6.60;;;3.27;;
8574;SDS011;4325;42.520;27.448;2023-05-07T14:41:58;4.73;;;3.30;;
8574;SDS011;4325;42.520;27.448;2023-05-07T14:44:26;4.23;;;3.10;;
8574;SDS011;4325;42.520;27.448;2023-05-07T14:46:53;6.17;;;3.40;;
8574;SDS011;4325;42.520;27.448;2023-05-07T14:49:20;7.57;;;3.23;;
8574;SDS011;4325;42.520;27.448;2023-05-07T14:51:47;8.73;;;3.90;;
8574;SDS011;4325;42.520;27.448;2023-05-07T14:54:14;9.67;;;3.43;;
8574;SDS011;4325;42.520;27.448;2023-05-07T14:56:41;9.50;;;3.00;;
8574;SDS011;4325;42.520;27.448;2023-05-07T14:59:08;8.97;;;3.43;;
8574;SDS011;4325;42.520;27.448;2023-05-07T15:01:37;11.03;;;3.47;;
8574;SDS011;4325;42.520;27.448;2023-05-07T15:04:05;4.60;;;3.20;;
8574;SDS011;4325;42.520;27.448;2023-05-07T15:06:32;8.57;;;3.77;;
8574;SDS011;4325;42.520;27.448;2023-05-07T15:08:59;7.33;;;3.30;;
8574;SDS011;4325;42.520;27.448;2023-05-07T15:11:26;10.90;;;3.90;;
8574;SDS011;4325;42.520;27.448;2023-05-07T15:13:52;12.03;;;3.90;;
8574;SDS011;4325;42.520;27.448;2023-05-07T15:16:19;9.10;;;4.10;;